KTCC/TCC METAR and TAF weather

Enter ICAO airport designator
Station Type Date Time Source
KTCC METAR 2022/07/03 13:53 UTC NOAA

KTCC 031353Z AUTO 04003KT 10SM CLR 23/16 A3008 RMK AO2 SLP121 T02330156


Station Type Date Time Source
KTCC Decoded METAR 2022/07/03 13:53 UTC NOAA

TUCUMCARI MUNICIPAL AIRPORT , NM, United States (KTCC) 35-11N 103-36W 1235M
Jul 03, 2022 - 09:53 AM EDT / 2022.07.03 1353 UTC
Wind: from the NE (040 degrees) at 3 MPH (3 KT):0
Visibility: 10 mile(s):0
Sky conditions: clear
Temperature: 73.9 F (23.3 C)
Dew Point: 60.1 F (15.6 C)
Relative Humidity: 61%
Pressure (altimeter): 30.08 in. Hg (1018 hPa)
ob: KTCC 031353Z AUTO 04003KT 10SM CLR 23/16 A3008 RMK AO2 SLP121 T02330156
cycle: 14

Station Type Date Time Source
KTCC TAF 2022/07/03 12:33 UTC NOAA

TAF KTCC 031130Z 0312/0412 VRB05KT P6SM SKC
FM031800 17012G20KT P6SM FEW110
FM032000 18014G23KT P6SM VCSH SCT100
FM040000 19013KT P6SM SCT100

Example: see airport list